sensor_id;sensor_type;location;lat;lon;timestamp;pressure;altitude;pressure_sealevel;temperature
71807;BMP280;59655;42.590;23.364;2023-03-19T00:01:16;91877.91;;;1.72
71807;BMP280;59655;42.590;23.364;2023-03-19T00:03:42;91880.38;;;1.81
71807;BMP280;59655;42.590;23.364;2023-03-19T00:06:07;91872.53;;;1.81
71807;BMP280;59655;42.590;23.364;2023-03-19T00:08:33;91871.09;;;1.80
71807;BMP280;59655;42.590;23.364;2023-03-19T00:10:58;91869.69;;;1.85
71807;BMP280;59655;42.590;23.364;2023-03-19T00:13:29;91867.09;;;1.90
71807;BMP280;59655;42.590;23.364;2023-03-19T00:15:55;91870.78;;;1.72
71807;BMP280;59655;42.590;23.364;2023-03-19T00:18:20;91871.59;;;1.84
71807;BMP280;59655;42.590;23.364;2023-03-19T00:20:46;91864.47;;;1.85
71807;BMP280;59655;42.590;23.364;2023-03-19T00:23:11;91855.41;;;1.80
71807;BMP280;59655;42.590;23.364;2023-03-19T00:25:36;91858.38;;;1.67
71807;BMP280;59655;42.590;23.364;2023-03-19T00:28:02;91858.22;;;1.76
71807;BMP280;59655;42.590;23.364;2023-03-19T00:30:27;91856.44;;;1.94
71807;BMP280;59655;42.590;23.364;2023-03-19T00:32:53;91857.41;;;1.65
71807;BMP280;59655;42.590;23.364;2023-03-19T00:35:18;91849.97;;;1.57
71807;BMP280;59655;42.590;23.364;2023-03-19T00:37:44;91854.28;;;1.61
71807;BMP280;59655;42.590;23.364;2023-03-19T00:40:10;91847.34;;;1.84
71807;BMP280;59655;42.590;23.364;2023-03-19T00:42:36;91848.53;;;1.83
71807;BMP280;59655;42.590;23.364;2023-03-19T00:45:01;91846.19;;;1.90
71807;BMP280;59655;42.590;23.364;2023-03-19T00:47:27;91841.50;;;2.00
71807;BMP280;59655;42.590;23.364;2023-03-19T00:49:52;91838.44;;;2.02
71807;BMP280;59655;42.590;23.364;2023-03-19T00:52:18;91838.00;;;1.77
71807;BMP280;59655;42.590;23.364;2023-03-19T00:54:43;91835.19;;;1.81
71807;BMP280;59655;42.590;23.364;2023-03-19T00:57:09;91833.25;;;1.75
71807;BMP280;59655;42.590;23.364;2023-03-19T00:59:35;91842.16;;;1.89
71807;BMP280;59655;42.590;23.364;2023-03-19T01:02:00;91838.91;;;1.68
71807;BMP280;59655;42.590;23.364;2023-03-19T01:04:26;91833.44;;;1.72
71807;BMP280;59655;42.590;23.364;2023-03-19T01:06:51;91836.53;;;1.70
71807;BMP280;59655;42.590;23.364;2023-03-19T01:09:17;91834.53;;;1.59
71807;BMP280;59655;42.590;23.364;2023-03-19T01:11:42;91827.16;;;1.32
71807;BMP280;59655;42.590;23.364;2023-03-19T01:14:08;91828.22;;;1.46
71807;BMP280;59655;42.590;23.364;2023-03-19T01:16:33;91826.34;;;1.72
71807;BMP280;59655;42.590;23.364;2023-03-19T01:19:00;91824.28;;;1.82
71807;BMP280;59655;42.590;23.364;2023-03-19T01:21:26;91819.81;;;1.88
71807;BMP280;59655;42.590;23.364;2023-03-19T01:23:55;91817.41;;;1.90
71807;BMP280;59655;42.590;23.364;2023-03-19T01:26:22;91819.66;;;1.71
71807;BMP280;59655;42.590;23.364;2023-03-19T01:28:48;91819.72;;;1.51
71807;BMP280;59655;42.590;23.364;2023-03-19T01:31:14;91819.72;;;1.51
71807;BMP280;59655;42.590;23.364;2023-03-19T01:33:40;91815.53;;;1.33
71807;BMP280;59655;42.590;23.364;2023-03-19T01:36:06;91816.53;;;1.15
71807;BMP280;59655;42.590;23.364;2023-03-19T01:38:32;91813.09;;;1.29
71807;BMP280;59655;42.590;23.364;2023-03-19T01:40:58;91812.28;;;1.44
71807;BMP280;59655;42.590;23.364;2023-03-19T01:43:28;91807.22;;;1.34
71807;BMP280;59655;42.590;23.364;2023-03-19T01:46:01;91807.88;;;1.55
71807;BMP280;59655;42.590;23.364;2023-03-19T01:51:03;91815.00;;;1.55
71807;BMP280;59655;42.590;23.364;2023-03-19T01:53:33;91816.06;;;1.69
71807;BMP280;59655;42.590;23.364;2023-03-19T01:56:03;91813.25;;;1.72
71807;BMP280;59655;42.590;23.364;2023-03-19T01:58:31;91818.56;;;1.26
71807;BMP280;59655;42.590;23.364;2023-03-19T02:00:57;91813.28;;;1.20
71807;BMP280;59655;42.590;23.364;2023-03-19T02:03:23;91815.09;;;1.40
71807;BMP280;59655;42.590;23.364;2023-03-19T02:05:50;91815.91;;;1.52
71807;BMP280;59655;42.590;23.364;2023-03-19T02:08:18;91819.66;;;1.45
71807;BMP280;59655;42.590;23.364;2023-03-19T02:10:45;91815.31;;;1.36
71807;BMP280;59655;42.590;23.364;2023-03-19T02:13:12;91818.88;;;1.33
71807;BMP280;59655;42.590;23.364;2023-03-19T02:15:37;91812.53;;;1.46
71807;BMP280;59655;42.590;23.364;2023-03-19T02:18:03;91815.34;;;1.42
71807;BMP280;59655;42.590;23.364;2023-03-19T02:20:34;91811.75;;;1.34
71807;BMP280;59655;42.590;23.364;2023-03-19T02:26:01;91822.53;;;1.47
71807;BMP280;59655;42.590;23.364;2023-03-19T02:28:28;91820.69;;;1.53
71807;BMP280;59655;42.590;23.364;2023-03-19T02:30:54;91822.66;;;1.58
71807;BMP280;59655;42.590;23.364;2023-03-19T02:33:20;91817.56;;;1.49
71807;BMP280;59655;42.590;23.364;2023-03-19T02:35:47;91833.84;;;1.38
71807;BMP280;59655;42.590;23.364;2023-03-19T02:38:14;91827.03;;;1.47
71807;BMP280;59655;42.590;23.364;2023-03-19T02:40:44;91825.31;;;1.38
71807;BMP280;59655;42.590;23.364;2023-03-19T02:43:12;91826.78;;;1.18
71807;BMP280;59655;42.590;23.364;2023-03-19T02:45:38;91829.53;;;1.09
71807;BMP280;59655;42.590;23.364;2023-03-19T02:48:03;91820.75;;;1.33
71807;BMP280;59655;42.590;23.364;2023-03-19T02:50:29;91818.19;;;1.12
71807;BMP280;59655;42.590;23.364;2023-03-19T02:52:55;91818.19;;;0.92
71807;BMP280;59655;42.590;23.364;2023-03-19T02:55:20;91821.56;;;0.98
71807;BMP280;59655;42.590;23.364;2023-03-19T02:57:46;91822.41;;;1.10
71807;BMP280;59655;42.590;23.364;2023-03-19T03:00:12;91817.81;;;0.99
71807;BMP280;59655;42.590;23.364;2023-03-19T03:02:38;91823.53;;;1.03
71807;BMP280;59655;42.590;23.364;2023-03-19T03:05:05;91819.75;;;0.84
71807;BMP280;59655;42.590;23.364;2023-03-19T03:07:31;91814.94;;;0.97
71807;BMP280;59655;42.590;23.364;2023-03-19T03:09:57;91819.34;;;1.11
71807;BMP280;59655;42.590;23.364;2023-03-19T03:12:22;91822.25;;;0.93
71807;BMP280;59655;42.590;23.364;2023-03-19T03:14:48;91822.56;;;0.80
71807;BMP280;59655;42.590;23.364;2023-03-19T03:17:14;91830.28;;;0.89
71807;BMP280;59655;42.590;23.364;2023-03-19T03:19:39;91820.72;;;1.07
71807;BMP280;59655;42.590;23.364;2023-03-19T03:22:05;91831.88;;;1.07
71807;BMP280;59655;42.590;23.364;2023-03-19T03:24:30;91839.09;;;1.12
71807;BMP280;59655;42.590;23.364;2023-03-19T03:26:56;91840.72;;;1.36
71807;BMP280;59655;42.590;23.364;2023-03-19T03:29:21;91839.31;;;1.35
71807;BMP280;59655;42.590;23.364;2023-03-19T03:31:47;91836.25;;;1.42
71807;BMP280;59655;42.590;23.364;2023-03-19T03:34:12;91834.66;;;1.50
71807;BMP280;59655;42.590;23.364;2023-03-19T03:36:37;91835.88;;;1.49
71807;BMP280;59655;42.590;23.364;2023-03-19T03:39:03;91840.97;;;1.38
71807;BMP280;59655;42.590;23.364;2023-03-19T03:41:29;91842.47;;;1.18
71807;BMP280;59655;42.590;23.364;2023-03-19T03:43:55;91838.06;;;1.30
71807;BMP280;59655;42.590;23.364;2023-03-19T03:46:20;91844.81;;;1.16
71807;BMP280;59655;42.590;23.364;2023-03-19T03:48:45;91853.06;;;1.35
71807;BMP280;59655;42.590;23.364;2023-03-19T03:51:14;91851.00;;;1.19
71807;BMP280;59655;42.590;23.364;2023-03-19T03:53:39;91855.53;;;1.18
71807;BMP280;59655;42.590;23.364;2023-03-19T03:56:05;91847.88;;;1.15
71807;BMP280;59655;42.590;23.364;2023-03-19T03:58:31;91850.94;;;1.34
71807;BMP280;59655;42.590;23.364;2023-03-19T04:00:56;91849.66;;;1.24
71807;BMP280;59655;42.590;23.364;2023-03-19T04:03:22;91852.53;;;1.26
71807;BMP280;59655;42.590;23.364;2023-03-19T04:05:48;91852.47;;;1.20
71807;BMP280;59655;42.590;23.364;2023-03-19T04:08:14;91840.94;;;1.32
71807;BMP280;59655;42.590;23.364;2023-03-19T04:10:40;91842.59;;;1.30
71807;BMP280;59655;42.590;23.364;2023-03-19T04:13:07;91842.00;;;1.20
71807;BMP280;59655;42.590;23.364;2023-03-19T04:15:33;91842.47;;;1.18
71807;BMP280;59655;42.590;23.364;2023-03-19T04:17:59;91848.91;;;1.23
71807;BMP280;59655;42.590;23.364;2023-03-19T04:20:25;91848.72;;;1.27
71807;BMP280;59655;42.590;23.364;2023-03-19T04:22:51;91849.19;;;1.25
71807;BMP280;59655;42.590;23.364;2023-03-19T04:25:17;91846.50;;;1.19
71807;BMP280;59655;42.590;23.364;2023-03-19T04:27:43;91842.41;;;1.13
71807;BMP280;59655;42.590;23.364;2023-03-19T04:30:09;91851.75;;;0.99
71807;BMP280;59655;42.590;23.364;2023-03-19T04:32:35;91859.19;;;0.86
71807;BMP280;59655;42.590;23.364;2023-03-19T04:35:01;91860.63;;;0.87
71807;BMP280;59655;42.590;23.364;2023-03-19T04:37:27;91863.47;;;0.89
71807;BMP280;59655;42.590;23.364;2023-03-19T04:39:53;91858.22;;;1.04
71807;BMP280;59655;42.590;23.364;2023-03-19T04:42:19;91864.94;;;0.90
71807;BMP280;59655;42.590;23.364;2023-03-19T04:44:44;91865.06;;;1.01
71807;BMP280;59655;42.590;23.364;2023-03-19T04:47:10;91865.72;;;0.96
71807;BMP280;59655;42.590;23.364;2023-03-19T04:49:35;91867.16;;;1.17
71807;BMP280;59655;42.590;23.364;2023-03-19T04:52:01;91852.06;;;1.27
71807;BMP280;59655;42.590;23.364;2023-03-19T04:54:26;91850.38;;;1.24
71807;BMP280;59655;42.590;23.364;2023-03-19T04:56:52;91850.88;;;1.08
71807;BMP280;59655;42.590;23.364;2023-03-19T04:59:18;91858.16;;;1.18
71807;BMP280;59655;42.590;23.364;2023-03-19T05:01:43;91854.34;;;1.19
71807;BMP280;59655;42.590;23.364;2023-03-19T05:04:09;91857.09;;;1.31
71807;BMP280;59655;42.590;23.364;2023-03-19T05:06:35;91862.84;;;1.41
71807;BMP280;59655;42.590;23.364;2023-03-19T05:09:03;91863.84;;;1.43
71807;BMP280;59655;42.590;23.364;2023-03-19T05:11:28;91855.75;;;1.41
71807;BMP280;59655;42.590;23.364;2023-03-19T05:13:54;91864.38;;;1.47
71807;BMP280;59655;42.590;23.364;2023-03-19T05:16:19;91859.06;;;1.42
71807;BMP280;59655;42.590;23.364;2023-03-19T05:18:45;91861.75;;;1.47
71807;BMP280;59655;42.590;23.364;2023-03-19T05:21:12;91865.13;;;1.53
71807;BMP280;59655;42.590;23.364;2023-03-19T05:23:38;91867.09;;;1.58
71807;BMP280;59655;42.590;23.364;2023-03-19T05:26:04;91863.34;;;1.65
71807;BMP280;59655;42.590;23.364;2023-03-19T05:28:31;91862.44;;;1.68
71807;BMP280;59655;42.590;23.364;2023-03-19T05:30:56;91856.00;;;1.69
71807;BMP280;59655;42.590;23.364;2023-03-19T05:33:22;91854.34;;;1.66
71807;BMP280;59655;42.590;23.364;2023-03-19T05:35:48;91859.34;;;1.70
71807;BMP280;59655;42.590;23.364;2023-03-19T05:38:14;91858.56;;;1.64
71807;BMP280;59655;42.590;23.364;2023-03-19T05:40:39;91866.28;;;1.73
71807;BMP280;59655;42.590;23.364;2023-03-19T05:43:07;91857.50;;;1.76
71807;BMP280;59655;42.590;23.364;2023-03-19T05:45:34;91866.78;;;1.77
71807;BMP280;59655;42.590;23.364;2023-03-19T05:48:00;91862.50;;;1.79
71807;BMP280;59655;42.590;23.364;2023-03-19T05:50:26;91862.31;;;1.83
71807;BMP280;59655;42.590;23.364;2023-03-19T05:52:51;91865.91;;;1.86
71807;BMP280;59655;42.590;23.364;2023-03-19T05:55:16;91862.34;;;1.89
71807;BMP280;59655;42.590;23.364;2023-03-19T05:57:42;91861.41;;;1.92
71807;BMP280;59655;42.590;23.364;2023-03-19T06:00:08;91868.13;;;1.98
71807;BMP280;59655;42.590;23.364;2023-03-19T06:02:34;91866.00;;;2.03
71807;BMP280;59655;42.590;23.364;2023-03-19T06:05:00;91865.81;;;2.06
71807;BMP280;59655;42.590;23.364;2023-03-19T06:07:25;91871.53;;;2.10
71807;BMP280;59655;42.590;23.364;2023-03-19T06:09:51;91869.47;;;2.14
71807;BMP280;59655;42.590;23.364;2023-03-19T06:12:17;91864.47;;;2.16
71807;BMP280;59655;42.590;23.364;2023-03-19T06:14:42;91861.38;;;2.18
71807;BMP280;59655;42.590;23.364;2023-03-19T06:17:08;91868.06;;;2.19
71807;BMP280;59655;42.590;23.364;2023-03-19T06:19:33;91865.22;;;2.23
71807;BMP280;59655;42.590;23.364;2023-03-19T06:21:59;91869.28;;;2.24
71807;BMP280;59655;42.590;23.364;2023-03-19T06:24:24;91870.25;;;2.26
71807;BMP280;59655;42.590;23.364;2023-03-19T06:26:50;91865.75;;;2.32
71807;BMP280;59655;42.590;23.364;2023-03-19T06:29:15;91870.28;;;2.37
71807;BMP280;59655;42.590;23.364;2023-03-19T06:31:40;91876.75;;;2.42
71807;BMP280;59655;42.590;23.364;2023-03-19T06:34:06;91874.16;;;2.42
71807;BMP280;59655;42.590;23.364;2023-03-19T06:36:32;91872.72;;;2.47
71807;BMP280;59655;42.590;23.364;2023-03-19T06:38:57;91877.50;;;2.48
71807;BMP280;59655;42.590;23.364;2023-03-19T06:41:23;91884.19;;;2.49
71807;BMP280;59655;42.590;23.364;2023-03-19T06:43:51;91887.31;;;2.53
71807;BMP280;59655;42.590;23.364;2023-03-19T06:46:17;91883.53;;;2.60
71807;BMP280;59655;42.590;23.364;2023-03-19T06:48:42;91890.00;;;2.65
71807;BMP280;59655;42.590;23.364;2023-03-19T06:51:08;91891.66;;;2.68
71807;BMP280;59655;42.590;23.364;2023-03-19T06:53:33;91890.47;;;2.69
71807;BMP280;59655;42.590;23.364;2023-03-19T06:55:59;91899.31;;;2.71
71807;BMP280;59655;42.590;23.364;2023-03-19T06:58:25;91911.94;;;2.73
71807;BMP280;59655;42.590;23.364;2023-03-19T07:00:51;91902.16;;;2.73
71807;BMP280;59655;42.590;23.364;2023-03-19T07:03:16;91898.38;;;2.74
71807;BMP280;59655;42.590;23.364;2023-03-19T07:05:41;91909.59;;;2.81
71807;BMP280;59655;42.590;23.364;2023-03-19T07:08:07;91902.25;;;2.85
71807;BMP280;59655;42.590;23.364;2023-03-19T07:10:36;91911.28;;;2.84
71807;BMP280;59655;42.590;23.364;2023-03-19T07:13:02;91908.19;;;2.85
71807;BMP280;59655;42.590;23.364;2023-03-19T07:15:27;91914.13;;;2.86
71807;BMP280;59655;42.590;23.364;2023-03-19T07:17:53;91907.25;;;2.88
71807;BMP280;59655;42.590;23.364;2023-03-19T07:20:18;91910.38;;;2.92
71807;BMP280;59655;42.590;23.364;2023-03-19T07:22:44;91907.31;;;2.94
71807;BMP280;59655;42.590;23.364;2023-03-19T07:25:09;91904.22;;;2.95
71807;BMP280;59655;42.590;23.364;2023-03-19T07:27:34;91905.16;;;2.98
71807;BMP280;59655;42.590;23.364;2023-03-19T07:30:00;91904.72;;;3.05
71807;BMP280;59655;42.590;23.364;2023-03-19T07:32:25;91900.69;;;3.10
71807;BMP280;59655;42.590;23.364;2023-03-19T07:34:51;91907.13;;;3.14
71807;BMP280;59655;42.590;23.364;2023-03-19T07:37:16;91896.91;;;3.22
71807;BMP280;59655;42.590;23.364;2023-03-19T07:39:42;91903.34;;;3.21
71807;BMP280;59655;42.590;23.364;2023-03-19T07:42:07;91905.25;;;3.21
71807;BMP280;59655;42.590;23.364;2023-03-19T07:44:33;91905.75;;;3.25
71807;BMP280;59655;42.590;23.364;2023-03-19T07:46:58;91906.47;;;3.25
71807;BMP280;59655;42.590;23.364;2023-03-19T07:49:24;91907.41;;;3.33
71807;BMP280;59655;42.590;23.364;2023-03-19T07:51:49;91913.38;;;3.34
71807;BMP280;59655;42.590;23.364;2023-03-19T07:54:15;91905.28;;;3.37
71807;BMP280;59655;42.590;23.364;2023-03-19T07:56:40;91910.31;;;3.41
71807;BMP280;59655;42.590;23.364;2023-03-19T07:59:06;91905.31;;;3.43
71807;BMP280;59655;42.590;23.364;2023-03-19T08:01:32;91909.41;;;3.50
71807;BMP280;59655;42.590;23.364;2023-03-19T08:03:57;91917.50;;;3.52
71807;BMP280;59655;42.590;23.364;2023-03-19T08:06:23;91914.16;;;3.51
71807;BMP280;59655;42.590;23.364;2023-03-19T08:08:48;91914.16;;;3.57
71807;BMP280;59655;42.590;23.364;2023-03-19T08:11:14;91917.97;;;3.56
71807;BMP280;59655;42.590;23.364;2023-03-19T08:13:40;91917.53;;;3.63
71807;BMP280;59655;42.590;23.364;2023-03-19T08:16:06;91921.56;;;3.64
71807;BMP280;59655;42.590;23.364;2023-03-19T08:18:32;91930.41;;;3.67
71807;BMP280;59655;42.590;23.364;2023-03-19T08:20:58;91918.72;;;3.68
71807;BMP280;59655;42.590;23.364;2023-03-19T08:23:23;91918.28;;;3.75
71807;BMP280;59655;42.590;23.364;2023-03-19T08:25:49;91924.44;;;3.77
71807;BMP280;59655;42.590;23.364;2023-03-19T08:28:16;91924.47;;;3.72
71807;BMP280;59655;42.590;23.364;2023-03-19T08:30:41;91923.97;;;3.79
71807;BMP280;59655;42.590;23.364;2023-03-19T08:33:07;91922.78;;;3.86
71807;BMP280;59655;42.590;23.364;2023-03-19T08:35:33;91917.06;;;3.81
71807;BMP280;59655;42.590;23.364;2023-03-19T08:37:58;91908.25;;;3.85
71807;BMP280;59655;42.590;23.364;2023-03-19T08:40:24;91914.69;;;3.89
71807;BMP280;59655;42.590;23.364;2023-03-19T08:42:49;91911.59;;;3.91
71807;BMP280;59655;42.590;23.364;2023-03-19T08:45:15;91914.72;;;3.95
71807;BMP280;59655;42.590;23.364;2023-03-19T08:47:41;91910.41;;;3.97
71807;BMP280;59655;42.590;23.364;2023-03-19T08:50:08;91912.78;;;3.95
71807;BMP280;59655;42.590;23.364;2023-03-19T08:52:34;91912.56;;;3.93
71807;BMP280;59655;42.590;23.364;2023-03-19T08:55:00;91904.66;;;4.05
71807;BMP280;59655;42.590;23.364;2023-03-19T08:57:25;91905.88;;;4.15
71807;BMP280;59655;42.590;23.364;2023-03-19T08:59:53;91893.25;;;4.19
71807;BMP280;59655;42.590;23.364;2023-03-19T09:02:19;91898.22;;;4.28
71807;BMP280;59655;42.590;23.364;2023-03-19T09:04:44;91890.09;;;4.32
71807;BMP280;59655;42.590;23.364;2023-03-19T09:07:11;91892.97;;;4.34
71807;BMP280;59655;42.590;23.364;2023-03-19T09:09:38;91889.88;;;4.41
71807;BMP280;59655;42.590;23.364;2023-03-19T09:12:04;91897.00;;;4.46
71807;BMP280;59655;42.590;23.364;2023-03-19T09:14:31;91890.31;;;4.51
71807;BMP280;59655;42.590;23.364;2023-03-19T09:16:57;91896.03;;;4.55
71807;BMP280;59655;42.590;23.364;2023-03-19T09:19:22;91893.16;;;4.64
71807;BMP280;59655;42.590;23.364;2023-03-19T09:21:48;91892.91;;;4.73
71807;BMP280;59655;42.590;23.364;2023-03-19T09:24:14;91885.72;;;4.74
71807;BMP280;59655;42.590;23.364;2023-03-19T09:26:40;91892.41;;;4.75
71807;BMP280;59655;42.590;23.364;2023-03-19T09:29:05;91887.13;;;4.80
71807;BMP280;59655;42.590;23.364;2023-03-19T09:31:31;91894.53;;;4.82
71807;BMP280;59655;42.590;23.364;2023-03-19T09:33:56;91894.28;;;4.86
71807;BMP280;59655;42.590;23.364;2023-03-19T09:36:22;91890.69;;;4.94
71807;BMP280;59655;42.590;23.364;2023-03-19T09:38:47;91898.78;;;5.02
71807;BMP280;59655;42.590;23.364;2023-03-19T09:41:30;91892.75;;;5.13
71807;BMP280;59655;42.590;23.364;2023-03-19T09:44:19;91901.56;;;5.15
71807;BMP280;59655;42.590;23.364;2023-03-19T09:49:38;91902.91;;;5.44
71807;BMP280;59655;42.590;23.364;2023-03-19T09:54:50;91893.41;;;5.72
71807;BMP280;59655;42.590;23.364;2023-03-19T09:57:19;91895.78;;;5.70
71807;BMP280;59655;42.590;23.364;2023-03-19T09:59:46;91894.66;;;5.59
71807;BMP280;59655;42.590;23.364;2023-03-19T10:04:55;91884.72;;;5.77
71807;BMP280;59655;42.590;23.364;2023-03-19T10:15:43;91879.00;;;6.09
71807;BMP280;59655;42.590;23.364;2023-03-19T10:18:17;91880.13;;;6.13
71807;BMP280;59655;42.590;23.364;2023-03-19T10:21:03;91872.69;;;6.17
71807;BMP280;59655;42.590;23.364;2023-03-19T10:26:31;91867.66;;;6.14
71807;BMP280;59655;42.590;23.364;2023-03-19T10:36:34;91852.94;;;6.30
71807;BMP280;59655;42.590;23.364;2023-03-19T10:39:00;91856.25;;;6.36
71807;BMP280;59655;42.590;23.364;2023-03-19T10:41:37;91846.19;;;6.34
71807;BMP280;59655;42.590;23.364;2023-03-19T10:44:11;91844.41;;;6.42
71807;BMP280;59655;42.590;23.364;2023-03-19T10:46:39;91842.28;;;6.41
71807;BMP280;59655;42.590;23.364;2023-03-19T10:49:11;91845.72;;;6.55
71807;BMP280;59655;42.590;23.364;2023-03-19T10:51:37;91839.06;;;6.91
71807;BMP280;59655;42.590;23.364;2023-03-19T10:54:17;91835.59;;;6.83
71807;BMP280;59655;42.590;23.364;2023-03-19T10:56:45;91831.59;;;6.96
71807;BMP280;59655;42.590;23.364;2023-03-19T11:01:55;91827.81;;;6.91
71807;BMP280;59655;42.590;23.364;2023-03-19T11:04:22;91820.06;;;6.99
71807;BMP280;59655;42.590;23.364;2023-03-19T11:06:49;91825.22;;;7.04
71807;BMP280;59655;42.590;23.364;2023-03-19T11:11:57;91815.88;;;7.03
71807;BMP280;59655;42.590;23.364;2023-03-19T11:14:27;91816.59;;;7.04
71807;BMP280;59655;42.590;23.364;2023-03-19T11:16:54;91805.41;;;7.17
71807;BMP280;59655;42.590;23.364;2023-03-19T11:19:24;91807.63;;;7.13
71807;BMP280;59655;42.590;23.364;2023-03-19T11:24:39;91790.69;;;7.21
71807;BMP280;59655;42.590;23.364;2023-03-19T11:27:06;91792.03;;;7.28
71807;BMP280;59655;42.590;23.364;2023-03-19T11:29:37;91793.06;;;7.25
71807;BMP280;59655;42.590;23.364;2023-03-19T11:39:46;91780.94;;;7.48
71807;BMP280;59655;42.590;23.364;2023-03-19T11:53:41;91767.59;;;7.73
71807;BMP280;59655;42.590;23.364;2023-03-19T11:59:00;91765.13;;;7.75
71807;BMP280;59655;42.590;23.364;2023-03-19T12:10:35;91748.81;;;8.16
71807;BMP280;59655;42.590;23.364;2023-03-19T12:21:05;91749.97;;;8.55
71807;BMP280;59655;42.590;23.364;2023-03-19T12:26:09;91741.28;;;8.68
71807;BMP280;59655;42.590;23.364;2023-03-19T12:31:51;91739.56;;;8.71
71807;BMP280;59655;42.590;23.364;2023-03-19T12:34:34;91730.91;;;8.91
71807;BMP280;59655;42.590;23.364;2023-03-19T12:39:52;91732.34;;;9.13
71807;BMP280;59655;42.590;23.364;2023-03-19T12:42:20;91725.88;;;9.22
71807;BMP280;59655;42.590;23.364;2023-03-19T12:44:51;91722.66;;;9.37
71807;BMP280;59655;42.590;23.364;2023-03-19T12:47:32;91724.19;;;9.53
71807;BMP280;59655;42.590;23.364;2023-03-19T12:50:00;91725.19;;;9.71
71807;BMP280;59655;42.590;23.364;2023-03-19T12:52:38;91719.47;;;9.96
71807;BMP280;59655;42.590;23.364;2023-03-19T12:55:21;91727.81;;;10.44
71807;BMP280;59655;42.590;23.364;2023-03-19T12:57:53;91730.19;;;10.86
71807;BMP280;59655;42.590;23.364;2023-03-19T13:10:52;91724.81;;;15.97
71807;BMP280;59655;42.590;23.364;2023-03-19T13:15:56;91717.53;;;16.79
71807;BMP280;59655;42.590;23.364;2023-03-19T13:18:39;91714.47;;;17.47
71807;BMP280;59655;42.590;23.364;2023-03-19T13:21:25;91711.63;;;17.67
71807;BMP280;59655;42.590;23.364;2023-03-19T13:26:30;91711.47;;;18.31
71807;BMP280;59655;42.590;23.364;2023-03-19T13:28:59;91715.94;;;18.62
71807;BMP280;59655;42.590;23.364;2023-03-19T13:31:26;91710.09;;;18.54
71807;BMP280;59655;42.590;23.364;2023-03-19T13:34:03;91703.88;;;19.10
71807;BMP280;59655;42.590;23.364;2023-03-19T13:36:35;91707.00;;;19.18
71807;BMP280;59655;42.590;23.364;2023-03-19T13:39:02;91706.31;;;19.55
71807;BMP280;59655;42.590;23.364;2023-03-19T13:43:57;91712.59;;;19.22
71807;BMP280;59655;42.590;23.364;2023-03-19T13:46:25;91699.78;;;18.85
71807;BMP280;59655;42.590;23.364;2023-03-19T13:48:53;91697.94;;;18.76
71807;BMP280;59655;42.590;23.364;2023-03-19T13:56:26;91699.34;;;18.77
71807;BMP280;59655;42.590;23.364;2023-03-19T13:59:22;91691.41;;;18.68
71807;BMP280;59655;42.590;23.364;2023-03-19T14:01:48;91690.91;;;18.48
71807;BMP280;59655;42.590;23.364;2023-03-19T14:06:42;91695.94;;;18.30
71807;BMP280;59655;42.590;23.364;2023-03-19T14:14:46;91686.31;;;17.70
71807;BMP280;59655;42.590;23.364;2023-03-19T14:18:00;91693.84;;;17.83
71807;BMP280;59655;42.590;23.364;2023-03-19T14:20:16;91678.06;;;17.44
71807;BMP280;59655;42.590;23.364;2023-03-19T14:28:17;91681.72;;;17.06
71807;BMP280;59655;42.590;23.364;2023-03-19T14:30:45;91684.16;;;16.92
71807;BMP280;59655;42.590;23.364;2023-03-19T14:33:21;91684.53;;;16.46
71807;BMP280;59655;42.590;23.364;2023-03-19T14:35:50;91680.00;;;16.48
71807;BMP280;59655;42.590;23.364;2023-03-19T14:38:34;91682.47;;;16.25
71807;BMP280;59655;42.590;23.364;2023-03-19T14:41:02;91673.06;;;16.04
71807;BMP280;59655;42.590;23.364;2023-03-19T14:43:42;91677.03;;;15.94
71807;BMP280;59655;42.590;23.364;2023-03-19T14:54:39;91676.38;;;15.64
71807;BMP280;59655;42.590;23.364;2023-03-19T14:57:21;91674.25;;;15.62
71807;BMP280;59655;42.590;23.364;2023-03-19T14:59:47;91677.06;;;15.55
71807;BMP280;59655;42.590;23.364;2023-03-19T15:02:39;91680.00;;;15.49
71807;BMP280;59655;42.590;23.364;2023-03-19T15:05:13;91675.91;;;15.29
71807;BMP280;59655;42.590;23.364;2023-03-19T15:07:43;91677.19;;;15.18
71807;BMP280;59655;42.590;23.364;2023-03-19T15:10:30;91680.78;;;15.03
71807;BMP280;59655;42.590;23.364;2023-03-19T15:13:38;91686.56;;;15.00
71807;BMP280;59655;42.590;23.364;2023-03-19T15:18:59;91678.41;;;14.61
71807;BMP280;59655;42.590;23.364;2023-03-19T15:21:25;91684.28;;;14.49
71807;BMP280;59655;42.590;23.364;2023-03-19T15:23:50;91681.84;;;14.44
71807;BMP280;59655;42.590;23.364;2023-03-19T15:26:30;91681.25;;;14.36
71807;BMP280;59655;42.590;23.364;2023-03-19T15:28:56;91681.81;;;14.34
71807;BMP280;59655;42.590;23.364;2023-03-19T15:31:22;91691.03;;;14.23
71807;BMP280;59655;42.590;23.364;2023-03-19T15:33:48;91691.28;;;14.18
71807;BMP280;59655;42.590;23.364;2023-03-19T15:36:26;91685.56;;;14.21
71807;BMP280;59655;42.590;23.364;2023-03-19T15:39:06;91688.06;;;14.19
71807;BMP280;59655;42.590;23.364;2023-03-19T15:41:39;91690.22;;;14.03
71807;BMP280;59655;42.590;23.364;2023-03-19T15:44:09;91686.19;;;13.85
71807;BMP280;59655;42.590;23.364;2023-03-19T15:46:39;91690.78;;;13.67
71807;BMP280;59655;42.590;23.364;2023-03-19T15:51:52;91697.25;;;13.47
71807;BMP280;59655;42.590;23.364;2023-03-19T15:54:20;91692.97;;;13.44
71807;BMP280;59655;42.590;23.364;2023-03-19T15:56:48;91696.25;;;13.34
71807;BMP280;59655;42.590;23.364;2023-03-19T15:59:16;91687.41;;;13.32
71807;BMP280;59655;42.590;23.364;2023-03-19T16:01:42;91695.69;;;13.19
71807;BMP280;59655;42.590;23.364;2023-03-19T16:04:15;91697.03;;;13.10
71807;BMP280;59655;42.590;23.364;2023-03-19T16:06:41;91695.50;;;12.99
71807;BMP280;59655;42.590;23.364;2023-03-19T16:11:40;91696.09;;;12.65
71807;BMP280;59655;42.590;23.364;2023-03-19T16:14:22;91700.06;;;12.56
71807;BMP280;59655;42.590;23.364;2023-03-19T16:16:50;91696.38;;;12.44
71807;BMP280;59655;42.590;23.364;2023-03-19T16:21:57;91714.78;;;12.17
71807;BMP280;59655;42.590;23.364;2023-03-19T16:24:39;91721.75;;;12.04
71807;BMP280;59655;42.590;23.364;2023-03-19T16:27:16;91714.69;;;11.92
71807;BMP280;59655;42.590;23.364;2023-03-19T16:29:47;91726.25;;;11.87
71807;BMP280;59655;42.590;23.364;2023-03-19T16:32:20;91721.81;;;11.74
71807;BMP280;59655;42.590;23.364;2023-03-19T16:37:47;91711.44;;;11.45